sensor_id;sensor_type;location;lat;lon;timestamp;temperature;humidity
22738;DHT22;11536;50.860;4.286;2023-11-18T00:01:56;8.00;99.90
22738;DHT22;11536;50.860;4.286;2023-11-18T00:04:22;8.00;99.90
22738;DHT22;11536;50.860;4.286;2023-11-18T00:06:48;8.00;99.90
22738;DHT22;11536;50.860;4.286;2023-11-18T00:09:14;8.00;99.90
22738;DHT22;11536;50.860;4.286;2023-11-18T00:11:40;8.00;99.90
22738;DHT22;11536;50.860;4.286;2023-11-18T00:14:07;8.00;99.90
22738;DHT22;11536;50.860;4.286;2023-11-18T00:16:33;8.00;99.90
22738;DHT22;11536;50.860;4.286;2023-11-18T00:19:00;8.00;99.90
22738;DHT22;11536;50.860;4.286;2023-11-18T00:21:27;8.00;99.90
22738;DHT22;11536;50.860;4.286;2023-11-18T00:23:53;8.00;99.90
22738;DHT22;11536;50.860;4.286;2023-11-18T00:26:21;7.90;99.90
22738;DHT22;11536;50.860;4.286;2023-11-18T00:28:47;8.00;99.90
22738;DHT22;11536;50.860;4.286;2023-11-18T00:31:14;7.90;99.90
22738;DHT22;11536;50.860;4.286;2023-11-18T00:33:40;7.90;99.90
22738;DHT22;11536;50.860;4.286;2023-11-18T00:36:06;7.90;99.90
22738;DHT22;11536;50.860;4.286;2023-11-18T00:38:32;7.90;99.90
22738;DHT22;11536;50.860;4.286;2023-11-18T00:40:58;7.90;99.90
22738;DHT22;11536;50.860;4.286;2023-11-18T00:43:23;7.90;99.90
22738;DHT22;11536;50.860;4.286;2023-11-18T00:45:49;7.90;99.90
22738;DHT22;11536;50.860;4.286;2023-11-18T00:48:14;7.90;99.90
22738;DHT22;11536;50.860;4.286;2023-11-18T00:50:40;7.90;99.90
22738;DHT22;11536;50.860;4.286;2023-11-18T00:53:06;7.90;99.90
22738;DHT22;11536;50.860;4.286;2023-11-18T00:55:32;7.90;99.90
22738;DHT22;11536;50.860;4.286;2023-11-18T00:57:57;8.00;99.90
22738;DHT22;11536;50.860;4.286;2023-11-18T01:00:24;7.90;99.90
22738;DHT22;11536;50.860;4.286;2023-11-18T01:02:52;7.90;99.90
22738;DHT22;11536;50.860;4.286;2023-11-18T01:05:19;7.90;99.90
22738;DHT22;11536;50.860;4.286;2023-11-18T01:07:44;7.90;99.90
22738;DHT22;11536;50.860;4.286;2023-11-18T01:10:11;7.90;99.90
22738;DHT22;11536;50.860;4.286;2023-11-18T01:12:37;8.00;99.90
22738;DHT22;11536;50.860;4.286;2023-11-18T01:15:03;8.00;99.90
22738;DHT22;11536;50.860;4.286;2023-11-18T01:17:29;7.90;99.90
22738;DHT22;11536;50.860;4.286;2023-11-18T01:19:56;8.00;99.90
22738;DHT22;11536;50.860;4.286;2023-11-18T01:22:22;8.00;99.90
22738;DHT22;11536;50.860;4.286;2023-11-18T01:24:49;8.00;99.90
22738;DHT22;11536;50.860;4.286;2023-11-18T01:27:16;8.00;99.90
22738;DHT22;11536;50.860;4.286;2023-11-18T01:29:44;8.00;99.90
22738;DHT22;11536;50.860;4.286;2023-11-18T01:32:12;8.00;99.90
22738;DHT22;11536;50.860;4.286;2023-11-18T01:34:39;8.00;99.90
22738;DHT22;11536;50.860;4.286;2023-11-18T01:37:06;8.00;99.90
22738;DHT22;11536;50.860;4.286;2023-11-18T01:39:33;8.00;99.90
22738;DHT22;11536;50.860;4.286;2023-11-18T01:41:59;8.00;99.90
22738;DHT22;11536;50.860;4.286;2023-11-18T01:44:25;8.00;99.90
22738;DHT22;11536;50.860;4.286;2023-11-18T01:46:54;8.00;99.90
22738;DHT22;11536;50.860;4.286;2023-11-18T01:49:20;8.00;99.90
22738;DHT22;11536;50.860;4.286;2023-11-18T01:51:46;8.00;99.90
22738;DHT22;11536;50.860;4.286;2023-11-18T01:54:13;8.10;99.90
22738;DHT22;11536;50.860;4.286;2023-11-18T01:56:48;8.00;99.90
22738;DHT22;11536;50.860;4.286;2023-11-18T01:59:14;8.10;99.90
22738;DHT22;11536;50.860;4.286;2023-11-18T02:01:47;8.10;99.90
22738;DHT22;11536;50.860;4.286;2023-11-18T02:04:14;8.10;99.90
22738;DHT22;11536;50.860;4.286;2023-11-18T02:06:40;8.10;99.90
22738;DHT22;11536;50.860;4.286;2023-11-18T02:09:06;8.10;99.90
22738;DHT22;11536;50.860;4.286;2023-11-18T02:11:39;8.10;99.90
22738;DHT22;11536;50.860;4.286;2023-11-18T02:14:07;8.10;99.90
22738;DHT22;11536;50.860;4.286;2023-11-18T02:16:39;8.10;99.90
22738;DHT22;11536;50.860;4.286;2023-11-18T02:19:21;8.10;99.90
22738;DHT22;11536;50.860;4.286;2023-11-18T02:21:47;8.10;99.90
22738;DHT22;11536;50.860;4.286;2023-11-18T02:24:31;8.10;99.90
22738;DHT22;11536;50.860;4.286;2023-11-18T02:27:02;8.10;99.90
22738;DHT22;11536;50.860;4.286;2023-11-18T02:29:34;8.20;99.90
22738;DHT22;11536;50.860;4.286;2023-11-18T02:32:37;8.20;99.90
22738;DHT22;11536;50.860;4.286;2023-11-18T02:35:10;8.20;99.90
22738;DHT22;11536;50.860;4.286;2023-11-18T02:37:47;8.20;99.90
22738;DHT22;11536;50.860;4.286;2023-11-18T02:40:27;8.20;99.90
22738;DHT22;11536;50.860;4.286;2023-11-18T02:42:57;8.20;99.90
22738;DHT22;11536;50.860;4.286;2023-11-18T02:45:24;8.20;99.90
22738;DHT22;11536;50.860;4.286;2023-11-18T02:47:50;8.20;99.90
22738;DHT22;11536;50.860;4.286;2023-11-18T02:50:17;8.20;99.90
22738;DHT22;11536;50.860;4.286;2023-11-18T02:52:44;8.20;99.90
22738;DHT22;11536;50.860;4.286;2023-11-18T02:55:10;8.20;99.90
22738;DHT22;11536;50.860;4.286;2023-11-18T02:57:37;8.20;99.90
22738;DHT22;11536;50.860;4.286;2023-11-18T03:00:07;8.20;99.90
22738;DHT22;11536;50.860;4.286;2023-11-18T03:02:37;8.20;99.90
22738;DHT22;11536;50.860;4.286;2023-11-18T03:05:06;8.20;99.90
22738;DHT22;11536;50.860;4.286;2023-11-18T03:07:32;8.20;99.90
22738;DHT22;11536;50.860;4.286;2023-11-18T03:09:57;8.20;99.90
22738;DHT22;11536;50.860;4.286;2023-11-18T03:12:23;8.20;99.90
22738;DHT22;11536;50.860;4.286;2023-11-18T03:14:52;8.20;99.90
22738;DHT22;11536;50.860;4.286;2023-11-18T03:17:19;8.20;99.90
22738;DHT22;11536;50.860;4.286;2023-11-18T03:19:45;8.20;99.90
22738;DHT22;11536;50.860;4.286;2023-11-18T03:22:11;8.20;99.90
22738;DHT22;11536;50.860;4.286;2023-11-18T03:24:38;8.30;99.90
22738;DHT22;11536;50.860;4.286;2023-11-18T03:27:04;8.20;99.90
22738;DHT22;11536;50.860;4.286;2023-11-18T03:29:30;8.20;99.90
22738;DHT22;11536;50.860;4.286;2023-11-18T03:31:55;8.30;99.90
22738;DHT22;11536;50.860;4.286;2023-11-18T03:34:21;8.30;99.90
22738;DHT22;11536;50.860;4.286;2023-11-18T03:36:47;8.30;99.90
22738;DHT22;11536;50.860;4.286;2023-11-18T03:39:13;8.30;99.90
22738;DHT22;11536;50.860;4.286;2023-11-18T03:41:42;8.30;99.90
22738;DHT22;11536;50.860;4.286;2023-11-18T03:44:12;8.30;99.90
22738;DHT22;11536;50.860;4.286;2023-11-18T03:46:38;8.30;99.90
22738;DHT22;11536;50.860;4.286;2023-11-18T03:49:04;8.30;99.90
22738;DHT22;11536;50.860;4.286;2023-11-18T03:51:29;8.30;99.90
22738;DHT22;11536;50.860;4.286;2023-11-18T03:53:55;8.30;99.90
22738;DHT22;11536;50.860;4.286;2023-11-18T03:56:21;8.30;99.90
22738;DHT22;11536;50.860;4.286;2023-11-18T03:58:46;8.40;99.90
22738;DHT22;11536;50.860;4.286;2023-11-18T04:01:23;8.30;99.90
22738;DHT22;11536;50.860;4.286;2023-11-18T04:03:52;8.40;99.90
22738;DHT22;11536;50.860;4.286;2023-11-18T04:06:18;8.40;99.90
22738;DHT22;11536;50.860;4.286;2023-11-18T04:08:46;8.40;99.90
22738;DHT22;11536;50.860;4.286;2023-11-18T04:11:13;8.40;99.90
22738;DHT22;11536;50.860;4.286;2023-11-18T04:13:42;8.40;99.90
22738;DHT22;11536;50.860;4.286;2023-11-18T04:16:15;8.40;99.90
22738;DHT22;11536;50.860;4.286;2023-11-18T04:18:42;8.40;99.90
22738;DHT22;11536;50.860;4.286;2023-11-18T04:21:08;8.40;99.90
22738;DHT22;11536;50.860;4.286;2023-11-18T04:23:43;8.40;99.90
22738;DHT22;11536;50.860;4.286;2023-11-18T04:26:12;8.40;99.90
22738;DHT22;11536;50.860;4.286;2023-11-18T04:28:38;8.40;99.90
22738;DHT22;11536;50.860;4.286;2023-11-18T04:31:04;8.40;99.90
22738;DHT22;11536;50.860;4.286;2023-11-18T04:33:31;8.50;99.90
22738;DHT22;11536;50.860;4.286;2023-11-18T04:35:57;8.50;99.90
22738;DHT22;11536;50.860;4.286;2023-11-18T04:38:23;8.50;99.90
22738;DHT22;11536;50.860;4.286;2023-11-18T04:40:49;8.50;99.90
22738;DHT22;11536;50.860;4.286;2023-11-18T04:43:15;8.50;99.90
22738;DHT22;11536;50.860;4.286;2023-11-18T04:45:44;8.50;99.90
22738;DHT22;11536;50.860;4.286;2023-11-18T04:48:09;8.50;99.90
22738;DHT22;11536;50.860;4.286;2023-11-18T04:50:35;8.60;99.90
22738;DHT22;11536;50.860;4.286;2023-11-18T04:53:01;8.60;99.90
22738;DHT22;11536;50.860;4.286;2023-11-18T04:55:28;8.60;99.90
22738;DHT22;11536;50.860;4.286;2023-11-18T04:57:54;8.60;99.90
22738;DHT22;11536;50.860;4.286;2023-11-18T05:00:21;8.60;99.90
22738;DHT22;11536;50.860;4.286;2023-11-18T05:02:47;8.60;99.90
22738;DHT22;11536;50.860;4.286;2023-11-18T05:05:17;8.60;99.90
22738;DHT22;11536;50.860;4.286;2023-11-18T05:07:43;8.70;99.90
22738;DHT22;11536;50.860;4.286;2023-11-18T05:10:09;8.70;99.90
22738;DHT22;11536;50.860;4.286;2023-11-18T05:12:38;8.70;99.90
22738;DHT22;11536;50.860;4.286;2023-11-18T05:15:06;8.80;99.90
22738;DHT22;11536;50.860;4.286;2023-11-18T05:17:34;8.80;99.90
22738;DHT22;11536;50.860;4.286;2023-11-18T05:20:02;8.70;99.90
22738;DHT22;11536;50.860;4.286;2023-11-18T05:22:28;8.80;99.90
22738;DHT22;11536;50.860;4.286;2023-11-18T05:24:53;8.80;99.90
22738;DHT22;11536;50.860;4.286;2023-11-18T05:27:19;8.80;99.90
22738;DHT22;11536;50.860;4.286;2023-11-18T05:29:44;8.80;99.90
22738;DHT22;11536;50.860;4.286;2023-11-18T05:32:13;8.80;99.90
22738;DHT22;11536;50.860;4.286;2023-11-18T05:34:38;8.80;99.90
22738;DHT22;11536;50.860;4.286;2023-11-18T05:37:04;8.80;99.90
22738;DHT22;11536;50.860;4.286;2023-11-18T05:39:30;8.90;99.90
22738;DHT22;11536;50.860;4.286;2023-11-18T05:41:57;8.90;99.90
22738;DHT22;11536;50.860;4.286;2023-11-18T05:44:23;8.90;99.90
22738;DHT22;11536;50.860;4.286;2023-11-18T05:46:59;8.90;99.90
22738;DHT22;11536;50.860;4.286;2023-11-18T05:49:24;8.90;99.90
22738;DHT22;11536;50.860;4.286;2023-11-18T05:51:50;8.90;99.90
22738;DHT22;11536;50.860;4.286;2023-11-18T05:54:17;8.90;99.90
22738;DHT22;11536;50.860;4.286;2023-11-18T05:56:43;8.90;99.90
22738;DHT22;11536;50.860;4.286;2023-11-18T05:59:08;8.90;99.90
22738;DHT22;11536;50.860;4.286;2023-11-18T06:01:34;8.90;99.90
22738;DHT22;11536;50.860;4.286;2023-11-18T06:04:00;8.90;99.90
22738;DHT22;11536;50.860;4.286;2023-11-18T06:06:26;8.90;99.90
22738;DHT22;11536;50.860;4.286;2023-11-18T06:08:52;9.00;99.90
22738;DHT22;11536;50.860;4.286;2023-11-18T06:11:19;9.00;99.90
22738;DHT22;11536;50.860;4.286;2023-11-18T06:13:49;9.00;99.90
22738;DHT22;11536;50.860;4.286;2023-11-18T06:16:20;9.00;99.90
22738;DHT22;11536;50.860;4.286;2023-11-18T06:18:47;9.00;99.90
22738;DHT22;11536;50.860;4.286;2023-11-18T06:21:14;9.10;99.90
22738;DHT22;11536;50.860;4.286;2023-11-18T06:23:41;9.10;99.90
22738;DHT22;11536;50.860;4.286;2023-11-18T06:26:07;9.10;99.90
22738;DHT22;11536;50.860;4.286;2023-11-18T06:28:33;9.10;99.90
22738;DHT22;11536;50.860;4.286;2023-11-18T06:30:59;9.10;99.90
22738;DHT22;11536;50.860;4.286;2023-11-18T06:33:25;9.10;99.90
22738;DHT22;11536;50.860;4.286;2023-11-18T06:35:53;9.20;99.90
22738;DHT22;11536;50.860;4.286;2023-11-18T06:38:20;9.20;99.90
22738;DHT22;11536;50.860;4.286;2023-11-18T06:40:45;9.20;99.90
22738;DHT22;11536;50.860;4.286;2023-11-18T06:43:11;9.20;99.90
22738;DHT22;11536;50.860;4.286;2023-11-18T06:45:42;9.20;99.90
22738;DHT22;11536;50.860;4.286;2023-11-18T06:48:08;9.20;99.90
22738;DHT22;11536;50.860;4.286;2023-11-18T06:50:34;9.20;99.90
22738;DHT22;11536;50.860;4.286;2023-11-18T06:53:00;9.20;99.90
22738;DHT22;11536;50.860;4.286;2023-11-18T06:55:26;9.30;99.90
22738;DHT22;11536;50.860;4.286;2023-11-18T06:57:52;9.30;99.90
22738;DHT22;11536;50.860;4.286;2023-11-18T07:00:20;9.30;99.90
22738;DHT22;11536;50.860;4.286;2023-11-18T07:02:47;9.30;99.90
22738;DHT22;11536;50.860;4.286;2023-11-18T07:05:13;9.30;99.90
22738;DHT22;11536;50.860;4.286;2023-11-18T07:07:40;9.30;99.90
22738;DHT22;11536;50.860;4.286;2023-11-18T07:10:08;9.40;99.90
22738;DHT22;11536;50.860;4.286;2023-11-18T07:12:38;9.40;99.90
22738;DHT22;11536;50.860;4.286;2023-11-18T07:15:05;9.40;99.90
22738;DHT22;11536;50.860;4.286;2023-11-18T07:17:30;9.40;99.90
22738;DHT22;11536;50.860;4.286;2023-11-18T07:19:56;9.40;99.90
22738;DHT22;11536;50.860;4.286;2023-11-18T07:22:21;9.40;99.90
22738;DHT22;11536;50.860;4.286;2023-11-18T07:24:47;9.40;99.90
22738;DHT22;11536;50.860;4.286;2023-11-18T07:27:13;9.50;99.90
22738;DHT22;11536;50.860;4.286;2023-11-18T07:29:38;9.40;99.90
22738;DHT22;11536;50.860;4.286;2023-11-18T07:32:04;9.40;99.90
22738;DHT22;11536;50.860;4.286;2023-11-18T07:34:31;9.40;99.90
22738;DHT22;11536;50.860;4.286;2023-11-18T07:37:00;9.50;99.90
22738;DHT22;11536;50.860;4.286;2023-11-18T07:39:27;9.50;99.90
22738;DHT22;11536;50.860;4.286;2023-11-18T07:42:12;9.50;99.90
22738;DHT22;11536;50.860;4.286;2023-11-18T07:44:38;9.50;99.90
22738;DHT22;11536;50.860;4.286;2023-11-18T07:47:06;9.50;99.90
22738;DHT22;11536;50.860;4.286;2023-11-18T07:49:34;9.50;99.90
22738;DHT22;11536;50.860;4.286;2023-11-18T07:52:01;9.50;99.90
22738;DHT22;11536;50.860;4.286;2023-11-18T07:54:27;9.50;99.90
22738;DHT22;11536;50.860;4.286;2023-11-18T07:56:53;9.50;99.90
22738;DHT22;11536;50.860;4.286;2023-11-18T07:59:20;9.50;99.90
22738;DHT22;11536;50.860;4.286;2023-11-18T08:01:46;9.50;99.90
22738;DHT22;11536;50.860;4.286;2023-11-18T08:04:12;9.50;99.90
22738;DHT22;11536;50.860;4.286;2023-11-18T08:06:39;9.50;99.90
22738;DHT22;11536;50.860;4.286;2023-11-18T08:09:06;9.50;99.90
22738;DHT22;11536;50.860;4.286;2023-11-18T08:11:38;9.50;99.90
22738;DHT22;11536;50.860;4.286;2023-11-18T08:14:09;9.50;99.90
22738;DHT22;11536;50.860;4.286;2023-11-18T08:16:35;9.50;99.90
22738;DHT22;11536;50.860;4.286;2023-11-18T08:19:01;9.50;99.90
22738;DHT22;11536;50.860;4.286;2023-11-18T08:21:36;9.50;99.90
22738;DHT22;11536;50.860;4.286;2023-11-18T08:24:08;9.50;99.90
22738;DHT22;11536;50.860;4.286;2023-11-18T08:26:35;9.50;99.90
22738;DHT22;11536;50.860;4.286;2023-11-18T08:29:01;9.50;99.90
22738;DHT22;11536;50.860;4.286;2023-11-18T08:31:27;9.50;99.90
22738;DHT22;11536;50.860;4.286;2023-11-18T08:33:52;9.50;99.90
22738;DHT22;11536;50.860;4.286;2023-11-18T08:36:20;9.50;99.90
22738;DHT22;11536;50.860;4.286;2023-11-18T08:38:49;9.50;99.90
22738;DHT22;11536;50.860;4.286;2023-11-18T08:41:14;9.50;99.90
22738;DHT22;11536;50.860;4.286;2023-11-18T08:43:40;9.50;99.90
22738;DHT22;11536;50.860;4.286;2023-11-18T08:46:06;9.40;99.90
22738;DHT22;11536;50.860;4.286;2023-11-18T08:48:33;9.40;99.90
22738;DHT22;11536;50.860;4.286;2023-11-18T08:51:00;9.50;99.90
22738;DHT22;11536;50.860;4.286;2023-11-18T08:53:27;9.50;99.90
22738;DHT22;11536;50.860;4.286;2023-11-18T08:55:53;9.50;99.90
22738;DHT22;11536;50.860;4.286;2023-11-18T08:58:22;9.50;99.90
22738;DHT22;11536;50.860;4.286;2023-11-18T09:00:52;9.50;99.90
22738;DHT22;11536;50.860;4.286;2023-11-18T09:03:18;9.50;99.90
22738;DHT22;11536;50.860;4.286;2023-11-18T09:05:52;9.50;99.90
22738;DHT22;11536;50.860;4.286;2023-11-18T09:08:27;9.50;99.90
22738;DHT22;11536;50.860;4.286;2023-11-18T09:10:58;9.60;99.90
22738;DHT22;11536;50.860;4.286;2023-11-18T09:13:25;9.50;99.90
22738;DHT22;11536;50.860;4.286;2023-11-18T09:16:01;9.50;99.90
22738;DHT22;11536;50.860;4.286;2023-11-18T09:18:33;9.50;99.90
22738;DHT22;11536;50.860;4.286;2023-11-18T09:21:01;9.50;99.90
22738;DHT22;11536;50.860;4.286;2023-11-18T09:23:28;9.50;99.90
22738;DHT22;11536;50.860;4.286;2023-11-18T09:25:54;9.50;99.90
22738;DHT22;11536;50.860;4.286;2023-11-18T09:28:20;9.60;99.90
22738;DHT22;11536;50.860;4.286;2023-11-18T09:30:48;9.60;99.90
22738;DHT22;11536;50.860;4.286;2023-11-18T09:33:22;9.60;99.90
22738;DHT22;11536;50.860;4.286;2023-11-18T09:35:54;9.50;99.90
22738;DHT22;11536;50.860;4.286;2023-11-18T09:38:33;9.50;99.90
22738;DHT22;11536;50.860;4.286;2023-11-18T09:41:01;9.50;99.90
22738;DHT22;11536;50.860;4.286;2023-11-18T09:43:36;9.50;99.90
22738;DHT22;11536;50.860;4.286;2023-11-18T09:46:10;9.60;99.90
22738;DHT22;11536;50.860;4.286;2023-11-18T09:48:45;9.60;99.90
22738;DHT22;11536;50.860;4.286;2023-11-18T09:51:33;9.60;99.90
22738;DHT22;11536;50.860;4.286;2023-11-18T09:54:04;9.60;99.90
22738;DHT22;11536;50.860;4.286;2023-11-18T10:01:53;9.60;99.90
22738;DHT22;11536;50.860;4.286;2023-11-18T10:04:26;9.60;99.90
22738;DHT22;11536;50.860;4.286;2023-11-18T10:06:57;9.60;99.90
22738;DHT22;11536;50.860;4.286;2023-11-18T10:09:26;9.60;99.90
22738;DHT22;11536;50.860;4.286;2023-11-18T10:12:03;9.60;99.90
22738;DHT22;11536;50.860;4.286;2023-11-18T10:14:35;9.60;99.90
22738;DHT22;11536;50.860;4.286;2023-11-18T10:17:05;9.60;99.90
22738;DHT22;11536;50.860;4.286;2023-11-18T10:19:53;9.60;99.90
22738;DHT22;11536;50.860;4.286;2023-11-18T10:22:30;9.60;99.90
22738;DHT22;11536;50.860;4.286;2023-11-18T10:24:58;9.60;99.90
22738;DHT22;11536;50.860;4.286;2023-11-18T10:27:29;9.60;99.90
22738;DHT22;11536;50.860;4.286;2023-11-18T10:30:02;9.60;99.90
22738;DHT22;11536;50.860;4.286;2023-11-18T10:32:28;9.70;99.90
22738;DHT22;11536;50.860;4.286;2023-11-18T10:34:57;9.70;99.90
22738;DHT22;11536;50.860;4.286;2023-11-18T10:37:26;9.70;99.90
22738;DHT22;11536;50.860;4.286;2023-11-18T10:39:56;9.70;99.90
22738;DHT22;11536;50.860;4.286;2023-11-18T10:42:25;9.70;99.90
22738;DHT22;11536;50.860;4.286;2023-11-18T10:44:56;9.70;99.90
22738;DHT22;11536;50.860;4.286;2023-11-18T10:47:29;9.70;99.90
22738;DHT22;11536;50.860;4.286;2023-11-18T10:49:57;9.70;99.90
22738;DHT22;11536;50.860;4.286;2023-11-18T10:52:27;9.70;99.90
22738;DHT22;11536;50.860;4.286;2023-11-18T10:55:00;9.70;99.90
22738;DHT22;11536;50.860;4.286;2023-11-18T10:57:37;9.70;99.90
22738;DHT22;11536;50.860;4.286;2023-11-18T11:00:05;9.80;99.90
22738;DHT22;11536;50.860;4.286;2023-11-18T11:02:39;9.80;99.90
22738;DHT22;11536;50.860;4.286;2023-11-18T11:05:09;9.80;99.90
22738;DHT22;11536;50.860;4.286;2023-11-18T11:07:42;9.80;99.90
22738;DHT22;11536;50.860;4.286;2023-11-18T11:10:08;9.80;99.90
22738;DHT22;11536;50.860;4.286;2023-11-18T11:12:43;9.80;99.90
22738;DHT22;11536;50.860;4.286;2023-11-18T11:15:20;9.80;99.90
22738;DHT22;11536;50.860;4.286;2023-11-18T11:17:54;9.80;99.90
22738;DHT22;11536;50.860;4.286;2023-11-18T11:20:33;9.90;99.90
22738;DHT22;11536;50.860;4.286;2023-11-18T11:26:23;9.90;99.90
22738;DHT22;11536;50.860;4.286;2023-11-18T11:31:31;9.90;99.90
22738;DHT22;11536;50.860;4.286;2023-11-18T11:34:20;9.90;99.90
22738;DHT22;11536;50.860;4.286;2023-11-18T11:36:49;9.90;99.90
22738;DHT22;11536;50.860;4.286;2023-11-18T11:39:17;10.00;99.90
22738;DHT22;11536;50.860;4.286;2023-11-18T11:41:51;10.00;99.90
22738;DHT22;11536;50.860;4.286;2023-11-18T11:44:17;10.10;99.90
22738;DHT22;11536;50.860;4.286;2023-11-18T11:46:47;10.00;99.90
22738;DHT22;11536;50.860;4.286;2023-11-18T11:49:20;10.00;99.90
22738;DHT22;11536;50.860;4.286;2023-11-18T11:51:49;10.00;99.90
22738;DHT22;11536;50.860;4.286;2023-11-18T11:54:29;10.00;99.90
22738;DHT22;11536;50.860;4.286;2023-11-18T11:57:00;10.00;99.90
22738;DHT22;11536;50.860;4.286;2023-11-18T12:02:17;10.00;99.90
22738;DHT22;11536;50.860;4.286;2023-11-18T12:04:47;10.00;99.90
22738;DHT22;11536;50.860;4.286;2023-11-18T12:07:22;10.10;99.90
22738;DHT22;11536;50.860;4.286;2023-11-18T12:09:56;10.00;99.90
22738;DHT22;11536;50.860;4.286;2023-11-18T12:12:24;10.00;99.90
22738;DHT22;11536;50.860;4.286;2023-11-18T12:14:57;10.00;99.90
22738;DHT22;11536;50.860;4.286;2023-11-18T12:20:45;10.10;99.90
22738;DHT22;11536;50.860;4.286;2023-11-18T12:23:19;10.10;99.90
22738;DHT22;11536;50.860;4.286;2023-11-18T12:25:48;10.10;99.90
22738;DHT22;11536;50.860;4.286;2023-11-18T12:28:21;10.10;99.90
22738;DHT22;11536;50.860;4.286;2023-11-18T12:30:53;10.10;99.90
22738;DHT22;11536;50.860;4.286;2023-11-18T12:33:25;10.10;99.90
22738;DHT22;11536;50.860;4.286;2023-11-18T12:41:40;10.20;99.90
22738;DHT22;11536;50.860;4.286;2023-11-18T12:46:50;10.20;99.90
22738;DHT22;11536;50.860;4.286;2023-11-18T12:49:19;10.20;99.90
22738;DHT22;11536;50.860;4.286;2023-11-18T12:51:52;10.20;99.90
22738;DHT22;11536;50.860;4.286;2023-11-18T12:54:28;10.20;99.90
22738;DHT22;11536;50.860;4.286;2023-11-18T12:56:56;10.20;99.90
22738;DHT22;11536;50.860;4.286;2023-11-18T12:59:22;10.30;99.90
22738;DHT22;11536;50.860;4.286;2023-11-18T13:01:52;10.30;99.90
22738;DHT22;11536;50.860;4.286;2023-11-18T13:04:24;10.30;99.90
22738;DHT22;11536;50.860;4.286;2023-11-18T13:06:53;10.30;99.90
22738;DHT22;11536;50.860;4.286;2023-11-18T13:09:21;10.30;99.90
22738;DHT22;11536;50.860;4.286;2023-11-18T13:12:02;10.30;99.90
22738;DHT22;11536;50.860;4.286;2023-11-18T13:14:32;10.30;99.90
22738;DHT22;11536;50.860;4.286;2023-11-18T13:17:14;10.30;99.90
22738;DHT22;11536;50.860;4.286;2023-11-18T13:19:44;10.30;99.90
22738;DHT22;11536;50.860;4.286;2023-11-18T13:22:11;10.30;99.90
22738;DHT22;11536;50.860;4.286;2023-11-18T13:24:38;10.30;99.90
22738;DHT22;11536;50.860;4.286;2023-11-18T13:27:13;10.30;99.90
22738;DHT22;11536;50.860;4.286;2023-11-18T13:29:43;10.40;99.90
22738;DHT22;11536;50.860;4.286;2023-11-18T13:32:11;10.30;99.90
22738;DHT22;11536;50.860;4.286;2023-11-18T13:34:39;10.30;99.90
22738;DHT22;11536;50.860;4.286;2023-11-18T13:37:07;10.40;99.90
22738;DHT22;11536;50.860;4.286;2023-11-18T13:39:34;10.40;99.90
22738;DHT22;11536;50.860;4.286;2023-11-18T13:42:19;10.40;99.90
22738;DHT22;11536;50.860;4.286;2023-11-18T13:44:45;10.40;99.90
22738;DHT22;11536;50.860;4.286;2023-11-18T13:47:11;10.40;99.90
22738;DHT22;11536;50.860;4.286;2023-11-18T13:49:38;10.40;99.90
22738;DHT22;11536;50.860;4.286;2023-11-18T13:52:07;10.40;99.90
22738;DHT22;11536;50.860;4.286;2023-11-18T13:54:36;10.50;99.90
22738;DHT22;11536;50.860;4.286;2023-11-18T13:57:03;10.50;99.90
22738;DHT22;11536;50.860;4.286;2023-11-18T13:59:29;10.50;99.90
22738;DHT22;11536;50.860;4.286;2023-11-18T14:01:56;10.50;99.90
22738;DHT22;11536;50.860;4.286;2023-11-18T14:04:26;10.50;99.90
22738;DHT22;11536;50.860;4.286;2023-11-18T14:06:56;10.60;99.90
22738;DHT22;11536;50.860;4.286;2023-11-18T14:09:22;10.50;99.90
22738;DHT22;11536;50.860;4.286;2023-11-18T14:11:51;10.50;99.90
22738;DHT22;11536;50.860;4.286;2023-11-18T14:14:16;10.60;99.90
22738;DHT22;11536;50.860;4.286;2023-11-18T14:16:43;10.60;99.90
22738;DHT22;11536;50.860;4.286;2023-11-18T14:19:09;10.50;99.90
22738;DHT22;11536;50.860;4.286;2023-11-18T14:21:34;10.60;99.90
22738;DHT22;11536;50.860;4.286;2023-11-18T14:24:00;10.60;99.90
22738;DHT22;11536;50.860;4.286;2023-11-18T14:26:28;10.60;99.90
22738;DHT22;11536;50.860;4.286;2023-11-18T14:28:55;10.70;99.90
22738;DHT22;11536;50.860;4.286;2023-11-18T14:31:21;10.60;99.90
22738;DHT22;11536;50.860;4.286;2023-11-18T14:33:48;10.70;99.90
22738;DHT22;11536;50.860;4.286;2023-11-18T14:36:14;10.70;99.90
22738;DHT22;11536;50.860;4.286;2023-11-18T14:38:40;10.70;99.90
22738;DHT22;11536;50.860;4.286;2023-11-18T14:41:06;10.70;99.90
22738;DHT22;11536;50.860;4.286;2023-11-18T14:43:33;10.70;99.90
22738;DHT22;11536;50.860;4.286;2023-11-18T14:46:00;10.70;99.90
22738;DHT22;11536;50.860;4.286;2023-11-18T14:48:25;10.70;99.90
22738;DHT22;11536;50.860;4.286;2023-11-18T14:50:51;10.70;99.90
22738;DHT22;11536;50.860;4.286;2023-11-18T14:53:16;10.70;99.90
22738;DHT22;11536;50.860;4.286;2023-11-18T14:55:42;10.80;99.90
22738;DHT22;11536;50.860;4.286;2023-11-18T14:58:08;10.70;99.90
22738;DHT22;11536;50.860;4.286;2023-11-18T15:00:37;10.80;99.90
22738;DHT22;11536;50.860;4.286;2023-11-18T15:03:03;10.80;99.90
22738;DHT22;11536;50.860;4.286;2023-11-18T15:05:28;10.80;99.90
22738;DHT22;11536;50.860;4.286;2023-11-18T15:07:55;10.80;99.90
22738;DHT22;11536;50.860;4.286;2023-11-18T15:10:23;10.80;99.90
22738;DHT22;11536;50.860;4.286;2023-11-18T15:12:53;10.80;99.90
22738;DHT22;11536;50.860;4.286;2023-11-18T15:15:23;10.80;99.90
22738;DHT22;11536;50.860;4.286;2023-11-18T15:17:57;10.90;99.90
22738;DHT22;11536;50.860;4.286;2023-11-18T15:20:24;10.90;99.90
22738;DHT22;11536;50.860;4.286;2023-11-18T15:22:50;10.90;99.90
22738;DHT22;11536;50.860;4.286;2023-11-18T15:25:16;10.90;99.90
22738;DHT22;11536;50.860;4.286;2023-11-18T15:27:46;10.90;99.90
22738;DHT22;11536;50.860;4.286;2023-11-18T15:30:13;11.00;99.90
22738;DHT22;11536;50.860;4.286;2023-11-18T15:32:43;11.00;99.90
22738;DHT22;11536;50.860;4.286;2023-11-18T15:35:09;11.00;99.90
22738;DHT22;11536;50.860;4.286;2023-11-18T15:37:39;11.00;99.90
22738;DHT22;11536;50.860;4.286;2023-11-18T15:40:10;11.10;99.90
22738;DHT22;11536;50.860;4.286;2023-11-18T15:42:46;11.10;99.90
22738;DHT22;11536;50.860;4.286;2023-11-18T15:45:19;11.10;99.90
22738;DHT22;11536;50.860;4.286;2023-11-18T15:47:45;11.10;99.90
22738;DHT22;11536;50.860;4.286;2023-11-18T15:50:14;11.20;99.90
22738;DHT22;11536;50.860;4.286;2023-11-18T15:52:48;11.20;99.90
22738;DHT22;11536;50.860;4.286;2023-11-18T15:55:15;11.20;99.90
22738;DHT22;11536;50.860;4.286;2023-11-18T15:57:44;11.20;99.90
22738;DHT22;11536;50.860;4.286;2023-11-18T16:00:11;11.20;99.90
22738;DHT22;11536;50.860;4.286;2023-11-18T16:02:40;11.20;99.90
22738;DHT22;11536;50.860;4.286;2023-11-18T16:05:06;11.30;99.90
22738;DHT22;11536;50.860;4.286;2023-11-18T16:07:32;11.30;99.90
22738;DHT22;11536;50.860;4.286;2023-11-18T16:09:58;11.30;99.90
22738;DHT22;11536;50.860;4.286;2023-11-18T16:12:25;11.40;99.90
22738;DHT22;11536;50.860;4.286;2023-11-18T16:14:54;11.40;99.90
22738;DHT22;11536;50.860;4.286;2023-11-18T16:17:20;11.50;99.90